createdAt,value
2023-04-20T00:00:35.317Z,10.95
2023-04-20T00:05:37.600Z,8.98
2023-04-20T00:10:39.069Z,8.75
2023-04-20T00:15:40.561Z,11.35
2023-04-20T00:20:42.199Z,16.77
2023-04-20T00:25:43.670Z,7.38
2023-04-20T00:30:45.170Z,11.23
2023-04-20T00:35:46.680Z,9.48
2023-04-20T00:40:53.004Z,8.13
2023-04-20T00:45:54.637Z,8.07
2023-04-20T00:50:56.109Z,8.43
2023-04-20T00:55:57.606Z,10.10
2023-04-20T01:00:59.099Z,8.18
2023-04-20T01:06:01.946Z,11.60
2023-04-20T01:11:03.431Z,9.32
2023-04-20T01:16:05.026Z,9.68
2023-04-20T01:21:06.534Z,9.95
2023-04-20T01:26:08.882Z,10.50
2023-04-20T01:31:10.611Z,8.32
2023-04-20T01:36:12.519Z,9.82
2023-04-20T01:41:13.980Z,11.25
2023-04-20T01:46:15.508Z,8.52
2023-04-20T01:51:17.008Z,10.63
2023-04-20T01:56:18.470Z,8.80
2023-04-20T02:01:20.021Z,10.13
2023-04-20T02:06:21.527Z,7.93
2023-04-20T02:11:22.999Z,11.35
2023-04-20T02:16:24.734Z,9.20
2023-04-20T02:21:26.318Z,6.88
2023-04-20T02:26:27.797Z,7.70
2023-04-20T02:31:29.302Z,8.93
2023-04-20T02:36:30.873Z,7.90
2023-04-20T02:41:32.589Z,12.40
2023-04-20T02:46:34.094Z,8.93
2023-04-20T02:51:35.661Z,10.70
2023-04-20T02:56:37.392Z,8.70
2023-04-20T03:01:39.011Z,5.03
2023-04-20T03:06:40.622Z,8.95
2023-04-20T03:11:42.092Z,4.97
2023-04-20T03:16:43.767Z,9.57
2023-04-20T03:21:45.406Z,9.27
2023-04-20T03:26:46.862Z,5.50
2023-04-20T03:31:48.417Z,7.60
2023-04-20T03:36:49.896Z,6.82
2023-04-20T03:41:51.374Z,6.40
2023-04-20T03:46:52.832Z,7.93
2023-04-20T03:51:54.321Z,5.40
2023-04-20T03:56:55.822Z,6.40
2023-04-20T04:01:58.334Z,9.82
2023-04-20T04:06:59.855Z,10.73
2023-04-20T04:12:01.392Z,6.18
2023-04-20T04:17:02.969Z,8.10
2023-04-20T04:22:04.484Z,11.30
2023-04-20T04:27:06.052Z,9.05
2023-04-20T04:32:08.080Z,13.77
2023-04-20T04:37:09.667Z,8.13
2023-04-20T04:42:11.253Z,7.38
2023-04-20T04:47:12.824Z,9.50
2023-04-20T04:52:14.629Z,8.45
2023-04-20T04:57:16.162Z,11.60
2023-04-20T05:02:17.770Z,10.32
2023-04-20T05:07:19.352Z,8.63
2023-04-20T05:12:20.820Z,9.82
2023-04-20T05:17:22.333Z,6.78
2023-04-20T05:22:23.819Z,7.75
2023-04-20T05:27:25.311Z,8.65
2023-04-20T05:32:26.787Z,8.70
2023-04-20T05:37:28.293Z,12.18
2023-04-20T05:42:29.897Z,9.30
2023-04-20T05:47:31.470Z,5.50
2023-04-20T05:52:33.393Z,9.35
2023-04-20T05:57:34.909Z,12.18
2023-04-20T06:02:36.928Z,5.40
2023-04-20T06:07:38.518Z,10.70
2023-04-20T06:12:40.076Z,11.43
2023-04-20T06:17:41.729Z,9.30
2023-04-20T06:22:44.483Z,9.00
2023-04-20T06:27:46.608Z,10.02
2023-04-20T06:32:48.116Z,15.85
2023-04-20T06:37:49.694Z,9.13
2023-04-20T06:42:51.149Z,10.48
2023-04-20T06:47:52.631Z,9.63
2023-04-20T06:52:54.074Z,12.60
2023-04-20T06:57:55.546Z,13.93
2023-04-20T07:02:57.275Z,9.70
2023-04-20T07:07:58.841Z,21.42
2023-04-20T07:13:00.487Z,12.68
2023-04-20T07:18:02.096Z,10.25
2023-04-20T07:23:03.801Z,10.68
2023-04-20T07:28:05.308Z,16.70
2023-04-20T07:33:07.357Z,33.25
2023-04-20T07:38:08.917Z,32.65
2023-04-20T07:43:10.432Z,17.88
2023-04-20T07:48:13.007Z,13.43
2023-04-20T07:53:14.538Z,12.80
2023-04-20T07:58:17.395Z,18.67
2023-04-20T08:03:19.211Z,22.67
2023-04-20T08:08:20.798Z,19.70
2023-04-20T08:13:22.250Z,12.57
2023-04-20T08:18:23.861Z,23.60
2023-04-20T08:23:27.989Z,13.30
2023-04-20T08:28:33.374Z,12.63
2023-04-20T08:33:35.104Z,22.98
2023-04-20T08:38:36.573Z,19.23
2023-04-20T08:43:38.041Z,12.43
2023-04-20T08:48:39.505Z,28.80
2023-04-20T08:53:40.974Z,20.20
2023-04-20T08:58:42.434Z,15.85
2023-04-20T09:03:44.450Z,15.13
2023-04-20T09:08:46.434Z,16.45
2023-04-20T09:14:06.453Z,20.50
2023-04-20T09:19:09.476Z,11.07
2023-04-20T09:24:11.415Z,11.82
2023-04-20T09:29:19.821Z,8.25
2023-04-20T09:34:21.451Z,10.05
2023-04-20T09:39:23.918Z,10.10
2023-04-20T09:44:25.383Z,12.13
2023-04-20T09:49:26.843Z,9.60
2023-04-20T09:54:29.592Z,11.85
2023-04-20T09:59:32.882Z,8.52
2023-04-20T10:04:34.711Z,11.35
2023-04-20T10:09:37.729Z,12.00
2023-04-20T10:19:44.331Z,9.02
2023-04-20T10:24:46.095Z,8.98
2023-04-20T10:29:48.369Z,11.90
2023-04-20T10:35:03.412Z,9.10
2023-04-20T10:40:07.715Z,13.50
2023-04-20T10:45:10.791Z,9.80
2023-04-20T10:50:13.610Z,10.00
2023-04-20T10:55:19.751Z,11.23
2023-04-20T11:00:22.930Z,12.27
2023-04-20T11:05:27.897Z,9.35
2023-04-20T11:10:39.730Z,10.85
2023-04-20T11:15:41.206Z,11.70
2023-04-20T11:20:54.787Z,14.85
2023-04-20T11:25:56.621Z,10.25
2023-04-20T11:30:58.084Z,13.90
2023-04-20T11:35:59.853Z,12.13
2023-04-20T11:41:07.799Z,14.88
2023-04-20T11:46:16.886Z,13.32
2023-04-20T11:51:18.436Z,14.38
2023-04-20T11:56:19.930Z,9.02
2023-04-20T12:01:21.494Z,14.88
2023-04-20T12:06:22.993Z,13.32
2023-04-20T12:11:24.776Z,17.38
2023-04-20T12:16:26.468Z,20.08
2023-04-20T12:21:28.034Z,21.92
2023-04-20T12:26:37.990Z,14.77
2023-04-20T12:31:40.555Z,13.70
2023-04-20T12:36:42.171Z,17.20
2023-04-20T12:41:43.654Z,20.42
2023-04-20T12:46:45.451Z,14.25
2023-04-20T12:51:47.062Z,15.18
2023-04-20T12:56:48.527Z,16.02
2023-04-20T13:01:50.191Z,20.20
2023-04-20T13:06:51.891Z,23.80
2023-04-20T13:11:53.732Z,22.98
2023-04-20T13:16:55.584Z,25.98
2023-04-20T13:21:57.558Z,19.27
2023-04-20T13:26:59.036Z,18.67
2023-04-20T13:32:00.648Z,17.85
2023-04-20T13:37:02.259Z,21.77
2023-04-20T13:42:03.790Z,13.45
2023-04-20T13:47:05.359Z,16.88
2023-04-20T13:52:06.897Z,20.95
2023-04-20T13:57:08.913Z,22.05
2023-04-20T14:02:10.924Z,14.88
2023-04-20T14:07:12.417Z,13.40
2023-04-20T14:12:13.951Z,16.95
2023-04-20T14:17:17.833Z,20.77
2023-04-20T14:22:19.291Z,17.25
2023-04-20T14:27:20.760Z,16.13
2023-04-20T14:32:22.269Z,16.67
2023-04-20T14:37:24.974Z,20.67
2023-04-20T14:42:26.445Z,21.42
2023-04-20T14:52:30.510Z,16.52
2023-04-20T14:57:31.986Z,14.82
2023-04-20T15:02:33.904Z,22.95
2023-04-20T15:07:35.590Z,16.33
2023-04-20T15:12:37.061Z,18.88
2023-04-20T15:17:38.616Z,16.65
2023-04-20T15:22:40.188Z,17.10
2023-04-20T15:27:41.689Z,17.48
2023-04-20T15:32:43.169Z,18.48
2023-04-20T15:37:45.322Z,15.45
2023-04-20T15:42:46.819Z,20.13
2023-04-20T15:47:48.320Z,14.15
2023-04-20T15:52:51.998Z,15.90
2023-04-20T15:57:57.116Z,20.55
2023-04-20T16:03:01.396Z,16.50
2023-04-20T16:08:03.200Z,13.10
2023-04-20T16:13:04.911Z,18.92
2023-04-20T16:18:06.446Z,16.67
2023-04-20T16:23:07.957Z,17.90
2023-04-20T16:28:09.503Z,19.95
2023-04-20T16:33:11.059Z,16.63
2023-04-20T16:38:12.576Z,22.20
2023-04-20T16:43:14.037Z,22.10
2023-04-20T16:48:15.511Z,16.40
2023-04-20T16:53:17.072Z,23.00
2023-04-20T16:58:18.561Z,20.20
2023-04-20T17:03:20.220Z,20.85
2023-04-20T17:08:21.954Z,18.45
2023-04-20T17:13:23.433Z,20.70
2023-04-20T17:18:24.959Z,21.02
2023-04-20T17:23:26.551Z,21.65
2023-04-20T17:28:28.029Z,19.20
2023-04-20T17:33:29.520Z,21.58
2023-04-20T17:38:31.077Z,19.00
2023-04-20T17:43:32.572Z,21.35
2023-04-20T17:48:34.169Z,22.80
2023-04-20T17:53:35.633Z,25.55
2023-04-20T17:58:37.127Z,24.35
2023-04-20T18:03:39.549Z,26.40
2023-04-20T18:08:41.235Z,23.98
2023-04-20T18:13:44.585Z,20.27
2023-04-20T18:18:46.101Z,20.42
2023-04-20T18:23:47.801Z,25.77
2023-04-20T18:28:49.291Z,18.98
2023-04-20T18:33:50.762Z,21.63
2023-04-20T18:38:53.108Z,23.20
2023-04-20T18:43:56.278Z,20.02
2023-04-20T18:48:57.806Z,15.38
2023-04-20T18:53:59.354Z,14.55
2023-04-20T18:59:01.485Z,21.48
2023-04-20T19:04:03.078Z,26.63
2023-04-20T19:09:07.290Z,24.10
2023-04-20T19:14:10.062Z,18.33
2023-04-20T19:19:11.891Z,19.95
2023-04-20T19:24:13.374Z,19.83
2023-04-20T19:29:14.841Z,17.65
2023-04-20T19:34:16.520Z,16.63
2023-04-20T19:39:18.171Z,19.15
2023-04-20T19:44:19.863Z,18.70
2023-04-20T19:49:21.592Z,22.00
2023-04-20T19:54:23.125Z,24.52
2023-04-20T19:59:24.607Z,18.48
2023-04-20T20:04:26.785Z,20.60
2023-04-20T20:09:28.513Z,22.60
2023-04-20T20:14:31.057Z,20.67
2023-04-20T20:19:32.540Z,18.55
2023-04-20T20:24:34.003Z,20.23
2023-04-20T20:29:35.561Z,17.65
2023-04-20T20:34:37.015Z,17.95
2023-04-20T20:39:38.519Z,18.63
2023-04-20T20:44:40.009Z,20.30
2023-04-20T20:49:41.537Z,18.73
2023-04-20T20:54:43.064Z,16.20
2023-04-20T20:59:44.580Z,18.27
2023-04-20T21:04:46.046Z,17.48
2023-04-20T21:09:47.519Z,20.83
2023-04-20T21:14:51.285Z,19.77
2023-04-20T21:19:52.795Z,19.50
2023-04-20T21:24:54.258Z,21.10
2023-04-20T21:29:55.771Z,19.15
2023-04-20T21:34:57.263Z,15.98
2023-04-20T21:39:58.744Z,17.88
2023-04-20T21:45:00.206Z,29.75
2023-04-20T21:50:01.674Z,18.15
2023-04-20T21:55:03.171Z,27.08
2023-04-20T22:00:04.849Z,26.95
2023-04-20T22:05:08.550Z,29.75
2023-04-20T22:10:10.068Z,23.33
2023-04-20T22:15:13.404Z,28.58
2023-04-20T22:20:15.483Z,31.33
2023-04-20T22:25:16.962Z,25.27
2023-04-20T22:30:18.444Z,33.20
2023-04-20T22:35:19.909Z,24.02
2023-04-20T22:40:21.369Z,31.52
2023-04-20T22:45:22.847Z,27.20
2023-04-20T22:50:24.424Z,24.27
2023-04-20T22:55:25.920Z,22.73
2023-04-20T23:00:27.401Z,25.55
2023-04-20T23:05:28.968Z,23.65
2023-04-20T23:10:30.457Z,17.10
2023-04-20T23:15:31.944Z,21.23
2023-04-20T23:20:33.680Z,26.27
2023-04-20T23:25:35.251Z,21.13
2023-04-20T23:30:36.741Z,19.88
2023-04-20T23:35:38.231Z,18.00
2023-04-20T23:40:39.799Z,20.48
2023-04-20T23:45:41.306Z,19.80
2023-04-20T23:50:42.808Z,15.45
2023-04-20T23:55:48.153Z,17.70
